Main page
METAR-TAF:

METAR-TAF

Airports :

Bou Saâda, Algeria

Bou Saada Airport

latitude: 35-20N, longitude: 004-12E, elevation: 461 m

Current weather observation

The report was made 15 minutes ago, at 07:00 UTC
Wind 9 kt from the Northwest
Temperature 12°C
Humidity 71%
Pressure 1020 hPa
Visibility: 8000 m
Few clouds at a height of 2000 ft
Scattered clouds at a height of 10000 ft

METAR: DAAD 180700Z 32009KT 8000 FEW020 SCT100 12/07 Q1020

Time: 08:15 (07:15 UTC)

Forecast

The report was made 14 hours and 15 minutes ago, at 17:00 UTC
Forecast valid from 17 at 18 UTC to 18 at 03 UTC
Wind 8 kt from the East/Northeast
Visibility: 8000 m
Few clouds at a height of 3000 ft
Scattered clouds at a height of 10000 ft
Probability 30% :
Temporary
from 17 at 18 UTC to 17 at 21 UTC
Few clouds at a height of 3000 ft, Towering cumulus.

TAF: DAAD 171700Z 1718/1803 06008KT 8000 FEW030 SCT100 PROB30 TEMPO 1718/1721 FEW030TCU

Weather observations and forecasts of more than 4000 airports (METAR and TAF reports).

The available stations are represented by yellow and red dots on the map.

Hover mouse over dot to see the name of the station.

Then click to see weather observations and forecasts.

To change the map : click on the green buttons with a black cross to zoom in, on the green button with a dash to zoom out, or on the green arrows for adjacent maps.


METAR-TAF: